createdAt,value
2023-03-03T00:00:01.012Z,91.03
2023-03-03T00:01:03.826Z,91.26
2023-03-03T00:02:05.893Z,91.22
2023-03-03T00:03:11.510Z,90.82
2023-03-03T00:04:13.718Z,90.79
2023-03-03T00:05:15.710Z,90.53
2023-03-03T00:06:18.693Z,90.35
2023-03-03T00:07:20.796Z,90.15
2023-03-03T00:08:22.707Z,90.10
2023-03-03T00:09:24.976Z,89.93
2023-03-03T00:10:27.678Z,89.97
2023-03-03T00:11:29.617Z,90.15
2023-03-03T00:12:34.983Z,90.25
2023-03-03T00:13:46.732Z,90.22
2023-03-03T00:14:49.148Z,90.07
2023-03-03T00:15:52.725Z,90.01
2023-03-03T00:16:56.781Z,89.96
2023-03-03T00:17:59.210Z,90.08
2023-03-03T00:19:01.384Z,90.07
2023-03-03T00:20:07.364Z,90.00
2023-03-03T00:21:24.644Z,89.88
2023-03-03T00:22:33.335Z,89.91
2023-03-03T00:23:38.214Z,89.67
2023-03-03T00:24:40.513Z,90.04
2023-03-03T00:25:44.847Z,89.98
2023-03-03T00:26:52.917Z,90.18
2023-03-03T00:27:56.919Z,90.05
2023-03-03T00:28:59.706Z,89.84
2023-03-03T00:30:03.402Z,90.69
2023-03-03T00:31:09.581Z,90.94
2023-03-03T00:32:22.611Z,90.97
2023-03-03T00:33:28.405Z,91.19
2023-03-03T00:34:33.722Z,91.70
2023-03-03T00:35:36.239Z,91.87
2023-03-03T00:36:40.744Z,92.08
2023-03-03T00:37:43.268Z,91.90
2023-03-03T00:38:46.673Z,91.53
2023-03-03T00:39:49.082Z,91.47
2023-03-03T00:40:51.286Z,91.57
2023-03-03T00:41:54.056Z,91.61
2023-03-03T00:42:59.087Z,91.83
2023-03-03T00:44:04.883Z,91.46
2023-03-03T00:45:28.284Z,91.27
2023-03-03T00:46:30.524Z,91.04
2023-03-03T00:47:42.440Z,91.10
2023-03-03T00:48:45.277Z,91.59
2023-03-03T00:49:47.180Z,91.40
2023-03-03T00:50:50.617Z,91.64
2023-03-03T00:51:54.435Z,91.55
2023-03-03T00:53:12.458Z,91.21
2023-03-03T00:54:14.655Z,91.07
2023-03-03T00:55:16.669Z,91.59
2023-03-03T00:56:19.599Z,91.55
2023-03-03T00:57:21.616Z,91.98
2023-03-03T00:58:25.193Z,91.85
2023-03-03T00:59:27.411Z,91.60
2023-03-03T01:00:29.865Z,91.74
2023-03-03T01:01:31.817Z,91.80
2023-03-03T01:02:33.864Z,91.64
2023-03-03T01:03:36.226Z,91.56
2023-03-03T01:04:41.744Z,91.49
2023-03-03T01:05:44.463Z,91.36
2023-03-03T01:06:47.348Z,91.40
2023-03-03T01:07:49.826Z,91.47
2023-03-03T01:08:51.751Z,91.44
2023-03-03T01:09:53.712Z,91.39
2023-03-03T01:10:58.998Z,91.30
2023-03-03T01:12:01.981Z,91.50
2023-03-03T01:13:06.042Z,91.32
2023-03-03T01:14:08.919Z,91.67
2023-03-03T01:15:13.642Z,91.47
2023-03-03T01:16:17.128Z,91.46
2023-03-03T01:17:19.702Z,91.35
2023-03-03T01:18:22.266Z,91.40
2023-03-03T01:19:25.241Z,91.86
2023-03-03T01:20:27.901Z,91.99
2023-03-03T01:21:29.806Z,92.14
2023-03-03T01:22:31.692Z,91.77
2023-03-03T01:23:34.883Z,91.88
2023-03-03T01:24:36.774Z,92.36
2023-03-03T01:25:39.263Z,92.37
2023-03-03T01:26:41.420Z,92.26
2023-03-03T01:27:43.296Z,92.29
2023-03-03T01:28:45.159Z,92.29
2023-03-03T01:29:47.040Z,92.83
2023-03-03T01:30:49.465Z,92.60
2023-03-03T01:31:51.611Z,92.72
2023-03-03T01:32:54.631Z,92.45
2023-03-03T01:33:56.790Z,92.53
2023-03-03T01:34:58.831Z,92.46
2023-03-03T01:36:03.000Z,92.82
2023-03-03T01:37:04.942Z,93.15
2023-03-03T01:38:07.065Z,93.42
2023-03-03T01:39:11.019Z,93.31
2023-03-03T01:40:17.062Z,93.21
2023-03-03T01:41:19.776Z,92.82
2023-03-03T01:42:22.357Z,92.97
2023-03-03T01:43:29.467Z,93.12
2023-03-03T01:44:31.584Z,92.85
2023-03-03T01:45:49.656Z,92.45
2023-03-03T01:46:58.823Z,92.20
2023-03-03T01:49:32.878Z,93.38
2023-03-03T01:50:57.270Z,93.65
2023-03-03T01:52:02.979Z,93.77
2023-03-03T01:53:08.753Z,93.44
2023-03-03T01:54:14.501Z,93.11
2023-03-03T01:55:26.328Z,93.11
2023-03-03T01:56:28.949Z,93.19
2023-03-03T01:57:35.939Z,93.00
2023-03-03T01:58:41.660Z,92.83
2023-03-03T01:59:48.340Z,93.31
2023-03-03T02:00:57.188Z,92.97
2023-03-03T02:01:59.349Z,92.77
2023-03-03T02:03:01.972Z,92.63
2023-03-03T02:04:05.358Z,92.26
2023-03-03T02:05:09.490Z,92.62
2023-03-03T02:06:17.947Z,92.49
2023-03-03T02:07:22.491Z,92.78
2023-03-03T02:08:28.397Z,92.85
2023-03-03T02:09:50.980Z,93.10
2023-03-03T02:10:55.238Z,93.20
2023-03-03T02:12:00.749Z,92.78
2023-03-03T02:13:02.987Z,92.49
2023-03-03T02:14:04.972Z,92.19
2023-03-03T02:15:19.404Z,92.39
2023-03-03T02:16:21.780Z,92.69
2023-03-03T02:17:24.591Z,92.42
2023-03-03T02:18:27.863Z,92.21
2023-03-03T02:19:38.969Z,92.22
2023-03-03T02:20:47.754Z,92.40
2023-03-03T02:21:49.972Z,92.44
2023-03-03T02:23:08.233Z,92.18
2023-03-03T02:24:16.969Z,92.13
2023-03-03T02:26:36.402Z,92.66
2023-03-03T02:27:39.238Z,92.94
2023-03-03T02:28:42.046Z,92.79
2023-03-03T02:29:44.071Z,92.62
2023-03-03T02:30:46.460Z,92.24
2023-03-03T02:31:48.619Z,92.01
2023-03-03T02:32:51.024Z,91.88
2023-03-03T02:33:54.623Z,92.18
2023-03-03T02:34:56.512Z,91.99
2023-03-03T02:35:59.159Z,92.18
2023-03-03T02:37:03.110Z,92.12
2023-03-03T02:38:20.635Z,91.79
2023-03-03T02:39:26.384Z,91.48
2023-03-03T02:40:32.453Z,91.49
2023-03-03T02:41:44.317Z,91.37
2023-03-03T02:42:48.524Z,91.35
2023-03-03T02:43:54.198Z,91.02
2023-03-03T02:44:56.321Z,92.20
2023-03-03T02:45:58.257Z,92.30
2023-03-03T02:47:00.696Z,91.98
2023-03-03T02:48:02.879Z,92.37
2023-03-03T02:49:07.018Z,92.34
2023-03-03T02:50:10.778Z,92.27
2023-03-03T02:51:13.003Z,92.77
2023-03-03T02:52:15.044Z,92.67
2023-03-03T02:53:17.318Z,92.65
2023-03-03T02:54:21.268Z,92.71
2023-03-03T02:55:23.314Z,92.60
2023-03-03T02:56:26.255Z,92.85
2023-03-03T02:57:28.722Z,93.43
2023-03-03T02:58:31.353Z,93.55
2023-03-03T02:59:33.519Z,92.90
2023-03-03T03:00:35.563Z,92.96
2023-03-03T03:01:39.090Z,92.63
2023-03-03T03:02:40.993Z,92.80
2023-03-03T03:03:43.970Z,93.07
2023-03-03T03:04:46.486Z,93.17
2023-03-03T03:05:48.527Z,92.73
2023-03-03T03:06:52.768Z,92.41
2023-03-03T03:07:54.768Z,92.41
2023-03-03T03:08:56.647Z,92.22
2023-03-03T03:09:58.569Z,92.04
2023-03-03T03:11:00.566Z,91.89
2023-03-03T03:12:02.713Z,92.38
2023-03-03T03:13:04.711Z,92.24
2023-03-03T03:14:09.125Z,92.87
2023-03-03T03:15:11.427Z,92.90
2023-03-03T03:16:13.976Z,92.70
2023-03-03T03:17:16.062Z,92.32
2023-03-03T03:18:18.488Z,92.03
2023-03-03T03:19:20.849Z,91.84
2023-03-03T03:20:23.305Z,91.89
2023-03-03T03:21:25.748Z,92.15
2023-03-03T03:22:27.632Z,92.75
2023-03-03T03:23:29.627Z,92.58
2023-03-03T03:24:31.974Z,92.66
2023-03-03T03:25:34.079Z,92.75
2023-03-03T03:26:36.662Z,92.67
2023-03-03T03:27:38.726Z,92.47
2023-03-03T03:28:40.634Z,92.06
2023-03-03T03:29:42.693Z,91.90
2023-03-03T03:30:46.653Z,91.65
2023-03-03T03:31:48.721Z,91.55
2023-03-03T03:32:50.899Z,91.82
2023-03-03T03:33:52.792Z,91.88
2023-03-03T03:34:54.785Z,91.66
2023-03-03T03:35:58.628Z,92.14
2023-03-03T03:37:00.849Z,92.45
2023-03-03T03:38:03.122Z,92.52
2023-03-03T03:39:05.294Z,92.72
2023-03-03T03:40:09.052Z,92.30
2023-03-03T03:41:12.249Z,92.12
2023-03-03T03:42:14.374Z,91.83
2023-03-03T03:43:16.454Z,92.03
2023-03-03T03:44:18.764Z,92.47
2023-03-03T03:45:21.222Z,92.22
2023-03-03T03:46:23.572Z,92.01
2023-03-03T03:47:25.618Z,91.83
2023-03-03T03:48:28.205Z,91.96
2023-03-03T03:49:31.206Z,92.13
2023-03-03T03:50:33.281Z,92.43
2023-03-03T03:51:35.300Z,92.52
2023-03-03T03:52:37.747Z,92.27
2023-03-03T03:53:39.721Z,92.06
2023-03-03T03:54:42.695Z,92.24
2023-03-03T03:55:45.803Z,91.95
2023-03-03T03:56:47.808Z,91.69
2023-03-03T03:57:50.387Z,92.23
2023-03-03T03:58:52.372Z,92.63
2023-03-03T03:59:54.533Z,92.39
2023-03-03T04:01:02.693Z,92.15
2023-03-03T04:02:04.855Z,92.48
2023-03-03T04:03:08.217Z,92.51
2023-03-03T04:04:10.613Z,92.77
2023-03-03T04:05:12.919Z,92.58
2023-03-03T04:06:15.115Z,92.35
2023-03-03T04:07:18.722Z,92.29
2023-03-03T04:08:20.649Z,92.41
2023-03-03T04:09:22.651Z,92.41
2023-03-03T04:10:24.651Z,92.61
2023-03-03T04:11:27.057Z,92.72
2023-03-03T04:12:30.243Z,92.40
2023-03-03T04:13:32.446Z,92.23
2023-03-03T04:14:34.717Z,91.84
2023-03-03T04:15:36.712Z,91.61
2023-03-03T04:16:39.060Z,91.71
2023-03-03T04:17:41.654Z,91.91
2023-03-03T04:18:46.555Z,92.03
2023-03-03T04:19:48.862Z,92.51
2023-03-03T04:20:51.372Z,92.42
2023-03-03T04:21:53.293Z,92.88
2023-03-03T04:22:55.392Z,92.71
2023-03-03T04:23:57.299Z,92.36
2023-03-03T04:25:00.544Z,92.06
2023-03-03T04:26:03.642Z,92.03
2023-03-03T04:27:06.445Z,92.06
2023-03-03T04:28:09.343Z,92.02
2023-03-03T04:29:11.497Z,91.83
2023-03-03T04:30:16.430Z,92.18
2023-03-03T04:31:20.265Z,91.98
2023-03-03T04:32:22.234Z,91.72
2023-03-03T04:33:24.616Z,91.72
2023-03-03T04:34:26.958Z,91.63
2023-03-03T04:35:29.041Z,92.19
2023-03-03T04:36:31.602Z,92.10
2023-03-03T04:37:34.074Z,91.94
2023-03-03T04:38:36.088Z,91.82
2023-03-03T04:39:38.001Z,92.14
2023-03-03T04:40:41.702Z,92.41
2023-03-03T04:41:43.920Z,91.73
2023-03-03T04:42:46.364Z,91.73
2023-03-03T04:43:48.361Z,91.72
2023-03-03T04:44:50.249Z,91.47
2023-03-03T04:45:52.497Z,91.51
2023-03-03T04:46:54.547Z,91.53
2023-03-03T04:47:56.426Z,91.26
2023-03-03T04:48:58.523Z,91.20
2023-03-03T04:50:00.802Z,91.00
2023-03-03T04:51:03.907Z,90.87
2023-03-03T04:52:06.047Z,90.90
2023-03-03T04:53:08.158Z,91.00
2023-03-03T04:54:10.240Z,90.80
2023-03-03T04:55:12.229Z,90.51
2023-03-03T04:56:16.866Z,90.38
2023-03-03T04:57:19.077Z,90.83
2023-03-03T04:58:21.665Z,90.62
2023-03-03T04:59:24.334Z,90.73
2023-03-03T05:00:27.186Z,90.47
2023-03-03T05:01:29.149Z,90.20
2023-03-03T05:02:31.086Z,90.52
2023-03-03T05:03:32.991Z,91.09
2023-03-03T05:04:35.892Z,90.89
2023-03-03T05:05:38.348Z,91.47
2023-03-03T05:06:40.376Z,91.88
2023-03-03T05:07:42.510Z,91.48
2023-03-03T05:08:45.724Z,91.15
2023-03-03T05:09:47.635Z,90.84
2023-03-03T05:10:55.517Z,90.61
2023-03-03T05:11:57.448Z,90.82
2023-03-03T05:12:59.438Z,91.12
2023-03-03T05:14:01.644Z,90.84
2023-03-03T05:15:05.570Z,90.77
2023-03-03T05:16:08.591Z,90.60
2023-03-03T05:17:11.469Z,90.89
2023-03-03T05:18:13.371Z,90.52
2023-03-03T05:19:15.261Z,90.55
2023-03-03T05:20:17.636Z,90.19
2023-03-03T05:21:20.458Z,89.89
2023-03-03T05:22:23.170Z,89.89
2023-03-03T05:23:25.064Z,89.75
2023-03-03T05:24:27.282Z,89.58
2023-03-03T05:25:29.178Z,89.34
2023-03-03T05:26:31.201Z,89.21
2023-03-03T05:27:33.119Z,88.91
2023-03-03T05:28:35.048Z,88.71
2023-03-03T05:29:37.189Z,88.82
2023-03-03T05:30:39.656Z,88.74
2023-03-03T05:31:44.009Z,88.78
2023-03-03T05:32:46.445Z,88.94
2023-03-03T05:33:49.140Z,89.04
2023-03-03T05:34:51.980Z,89.41
2023-03-03T05:35:56.814Z,89.06
2023-03-03T05:36:59.100Z,88.86
2023-03-03T05:38:03.105Z,88.54
2023-03-03T05:39:05.392Z,88.26
2023-03-03T05:40:09.525Z,87.95
2023-03-03T05:41:11.449Z,87.67
2023-03-03T05:42:14.187Z,87.49
2023-03-03T05:43:16.922Z,87.39
2023-03-03T05:44:20.682Z,87.75
2023-03-03T05:45:22.885Z,87.55
2023-03-03T05:46:25.099Z,87.31
2023-03-03T05:47:27.057Z,87.04
2023-03-03T05:48:29.643Z,86.87
2023-03-03T05:49:32.110Z,86.66
2023-03-03T05:50:35.300Z,87.06
2023-03-03T05:51:37.195Z,86.66
2023-03-03T05:52:39.279Z,86.34
2023-03-03T05:53:41.852Z,86.22
2023-03-03T05:54:44.435Z,85.92
2023-03-03T05:55:46.356Z,85.67
2023-03-03T05:56:49.239Z,85.41
2023-03-03T05:57:51.240Z,85.38
2023-03-03T05:58:53.223Z,85.24
2023-03-03T05:59:55.261Z,85.11
2023-03-03T06:00:57.464Z,85.12
2023-03-03T06:01:59.367Z,85.10
2023-03-03T06:03:02.967Z,85.05
2023-03-03T06:04:06.233Z,84.91
2023-03-03T06:05:09.091Z,84.81
2023-03-03T06:06:11.450Z,84.75
2023-03-03T06:07:13.533Z,84.69
2023-03-03T06:08:15.448Z,84.64
2023-03-03T06:09:17.433Z,84.99
2023-03-03T06:10:19.948Z,84.86
2023-03-03T06:11:21.965Z,84.54
2023-03-03T06:12:24.081Z,84.25
2023-03-03T06:13:26.521Z,84.05
2023-03-03T06:14:29.910Z,83.88
2023-03-03T06:15:31.842Z,83.68
2023-03-03T06:16:34.700Z,84.12
2023-03-03T06:17:38.404Z,84.35
2023-03-03T06:18:40.301Z,84.71
2023-03-03T06:19:42.260Z,84.86
2023-03-03T06:20:44.229Z,84.59
2023-03-03T06:21:46.579Z,84.24
2023-03-03T06:22:49.078Z,84.44
2023-03-03T06:23:51.053Z,84.74
2023-03-03T06:24:53.034Z,84.65
2023-03-03T06:25:54.939Z,84.85
2023-03-03T06:26:58.478Z,84.50
2023-03-03T06:28:01.337Z,84.03
2023-03-03T06:29:03.361Z,83.59
2023-03-03T06:30:07.833Z,83.18
2023-03-03T06:31:09.738Z,82.88
2023-03-03T06:32:11.889Z,82.48
2023-03-03T06:33:13.998Z,82.32
2023-03-03T06:34:16.172Z,82.12
2023-03-03T06:35:18.230Z,82.09
2023-03-03T06:36:21.180Z,81.79
2023-03-03T06:37:23.074Z,81.61
2023-03-03T06:38:26.124Z,81.60
2023-03-03T06:39:28.753Z,81.37
2023-03-03T06:40:31.016Z,81.33
2023-03-03T06:41:33.276Z,81.11
2023-03-03T06:42:35.289Z,80.94
2023-03-03T06:43:37.850Z,80.86
2023-03-03T06:44:39.744Z,80.71
2023-03-03T06:45:42.049Z,80.54
2023-03-03T06:46:46.693Z,80.41
2023-03-03T06:47:48.627Z,80.85
2023-03-03T06:48:50.510Z,80.67
2023-03-03T06:49:52.383Z,80.88
2023-03-03T06:50:54.690Z,80.62
2023-03-03T06:51:59.548Z,80.26
2023-03-03T06:53:11.455Z,80.02
2023-03-03T06:54:19.264Z,79.78
2023-03-03T06:55:23.020Z,79.54
2023-03-03T06:56:32.512Z,79.54
2023-03-03T06:57:42.083Z,79.86
2023-03-03T06:58:51.703Z,79.86
2023-03-03T07:00:16.037Z,79.38
2023-03-03T07:01:18.096Z,79.21
2023-03-03T07:02:21.536Z,79.10
2023-03-03T07:03:27.253Z,79.01
2023-03-03T07:04:32.906Z,78.85
2023-03-03T07:05:34.936Z,78.87
2023-03-03T07:06:37.250Z,78.83
2023-03-03T07:07:39.239Z,78.71
2023-03-03T07:08:42.178Z,78.62
2023-03-03T07:09:47.159Z,78.95
2023-03-03T07:10:51.584Z,78.73
2023-03-03T07:11:57.609Z,78.57
2023-03-03T07:13:21.479Z,78.74
2023-03-03T07:14:23.417Z,79.03
2023-03-03T07:15:31.912Z,79.02
2023-03-03T07:16:34.478Z,78.64
2023-03-03T07:17:48.448Z,78.19
2023-03-03T07:19:01.539Z,78.32
2023-03-03T07:20:10.296Z,77.66
2023-03-03T07:21:25.097Z,77.15
2023-03-03T07:22:28.555Z,77.15
2023-03-03T07:24:54.095Z,76.66
2023-03-03T07:25:56.075Z,76.33
2023-03-03T07:27:14.302Z,75.92
2023-03-03T07:28:25.290Z,75.79
2023-03-03T07:29:29.436Z,75.79
2023-03-03T07:30:32.860Z,76.26
2023-03-03T07:31:40.360Z,76.30
2023-03-03T07:32:45.233Z,76.32
2023-03-03T07:33:47.738Z,75.64
2023-03-03T07:34:52.456Z,75.60
2023-03-03T07:36:01.749Z,75.69
2023-03-03T07:37:19.418Z,75.59
2023-03-03T07:38:25.177Z,75.58
2023-03-03T07:39:38.334Z,75.91
2023-03-03T07:40:43.600Z,75.91
2023-03-03T07:41:45.692Z,75.38
2023-03-03T07:42:48.127Z,75.69
2023-03-03T07:44:08.764Z,75.56
2023-03-03T07:46:37.031Z,74.89
2023-03-03T07:47:39.916Z,74.85
2023-03-03T07:48:43.236Z,74.84
2023-03-03T07:49:47.384Z,73.58
2023-03-03T07:50:51.308Z,74.29
2023-03-03T07:51:56.388Z,74.29
2023-03-03T07:53:02.153Z,73.98
2023-03-03T07:54:36.905Z,73.55
2023-03-03T07:55:41.544Z,73.44
2023-03-03T07:56:43.831Z,73.45
2023-03-03T07:57:45.843Z,72.92
2023-03-03T07:58:47.987Z,73.09
2023-03-03T07:59:55.929Z,72.94
2023-03-03T08:01:24.702Z,72.68
2023-03-03T08:02:36.188Z,72.79
2023-03-03T08:03:38.824Z,72.88
2023-03-03T08:04:44.847Z,73.25
2023-03-03T08:05:48.895Z,73.37
2023-03-03T08:06:57.730Z,72.47
2023-03-03T08:08:12.452Z,72.56
2023-03-03T08:09:22.311Z,72.56
2023-03-03T08:10:31.160Z,72.08
2023-03-03T08:11:33.814Z,71.46
2023-03-03T08:12:43.197Z,70.73
2023-03-03T08:13:45.797Z,70.37
2023-03-03T08:14:51.094Z,69.72
2023-03-03T08:16:02.869Z,69.75
2023-03-03T08:17:20.813Z,70.37
2023-03-03T08:18:27.484Z,70.37
2023-03-03T08:19:30.653Z,70.16
2023-03-03T08:20:42.511Z,69.74
2023-03-03T08:21:44.437Z,69.07
2023-03-03T08:22:46.362Z,69.07
2023-03-03T08:23:48.760Z,68.74
2023-03-03T08:24:50.770Z,68.24
2023-03-03T08:25:53.656Z,68.79
2023-03-03T08:26:55.908Z,68.75
2023-03-03T08:27:58.007Z,68.75
2023-03-03T08:29:01.495Z,68.55
2023-03-03T08:30:06.516Z,69.22
2023-03-03T08:31:20.308Z,68.85
2023-03-03T08:32:13.566Z,68.05
2023-03-03T08:33:18.005Z,67.84
2023-03-03T08:34:20.029Z,68.63
2023-03-03T08:35:22.141Z,68.46
2023-03-03T08:36:24.226Z,68.87
2023-03-03T08:37:26.275Z,68.45
2023-03-03T08:38:28.563Z,69.04
2023-03-03T08:39:30.611Z,68.21
2023-03-03T08:40:33.803Z,68.42
2023-03-03T08:41:36.005Z,68.84
2023-03-03T08:42:37.996Z,68.39
2023-03-03T08:43:39.980Z,69.25
2023-03-03T08:44:41.871Z,69.07
2023-03-03T08:45:47.058Z,68.92
2023-03-03T08:46:49.562Z,68.59
2023-03-03T08:47:51.775Z,68.28
2023-03-03T08:48:54.513Z,67.39
2023-03-03T08:49:56.388Z,67.07
2023-03-03T08:50:59.744Z,67.00
2023-03-03T08:52:01.658Z,66.32
2023-03-03T08:53:05.336Z,66.48
2023-03-03T08:54:07.812Z,66.86
2023-03-03T08:55:10.411Z,67.16
2023-03-03T08:56:12.594Z,67.20
2023-03-03T08:57:14.474Z,67.22
2023-03-03T08:58:18.928Z,67.04
2023-03-03T08:59:21.732Z,66.27
2023-03-03T09:00:24.890Z,66.08
2023-03-03T09:01:27.542Z,66.38
2023-03-03T09:02:29.584Z,66.47
2023-03-03T09:03:31.592Z,66.33
2023-03-03T09:04:34.054Z,66.18
2023-03-03T09:05:38.252Z,66.35
2023-03-03T09:06:40.635Z,66.16
2023-03-03T09:07:45.488Z,65.77
2023-03-03T09:08:48.662Z,65.46
2023-03-03T09:09:50.745Z,65.14
2023-03-03T09:10:52.925Z,65.23
2023-03-03T09:12:00.696Z,64.66
2023-03-03T09:13:09.533Z,65.27
2023-03-03T09:14:15.825Z,65.27
2023-03-03T09:15:29.380Z,64.21
2023-03-03T09:16:36.357Z,63.98
2023-03-03T09:17:38.673Z,63.89
2023-03-03T09:18:41.599Z,63.56
2023-03-03T09:19:43.722Z,63.90
2023-03-03T09:20:49.194Z,64.57
2023-03-03T09:21:52.858Z,65.48
2023-03-03T09:22:54.722Z,65.36
2023-03-03T09:23:59.062Z,64.33
2023-03-03T09:25:01.554Z,63.58
2023-03-03T09:27:28.522Z,64.44
2023-03-03T09:28:32.017Z,66.02
2023-03-03T09:29:37.824Z,66.20
2023-03-03T09:30:43.719Z,65.99
2023-03-03T09:31:54.063Z,65.96
2023-03-03T09:32:57.607Z,65.39
2023-03-03T09:34:00.525Z,67.17
2023-03-03T09:35:27.479Z,66.96
2023-03-03T09:36:37.906Z,66.35
2023-03-03T09:37:40.923Z,66.35
2023-03-03T09:38:45.278Z,65.32
2023-03-03T09:39:50.378Z,63.43
2023-03-03T09:41:01.942Z,64.26
2023-03-03T09:42:22.805Z,63.79
2023-03-03T09:43:31.532Z,62.90
2023-03-03T09:44:43.370Z,62.41
2023-03-03T09:46:04.125Z,61.93
2023-03-03T09:47:21.054Z,63.30
2023-03-03T09:48:28.886Z,64.10
2023-03-03T09:49:36.805Z,65.14
2023-03-03T09:51:03.641Z,65.11
2023-03-03T09:52:09.500Z,64.86
2023-03-03T09:53:35.008Z,65.17
2023-03-03T09:55:09.410Z,65.34
2023-03-03T09:56:32.250Z,65.34
2023-03-03T09:58:09.959Z,65.15
2023-03-03T09:59:11.492Z,65.50
2023-03-03T10:00:27.425Z,64.67
2023-03-03T10:01:56.026Z,64.65
2023-03-03T10:03:24.608Z,65.46
2023-03-03T10:04:51.404Z,64.98
2023-03-03T10:06:00.093Z,65.00
2023-03-03T10:07:11.804Z,65.67
2023-03-03T10:08:35.138Z,66.32
2023-03-03T10:09:40.879Z,66.77
2023-03-03T10:10:56.117Z,65.87
2023-03-03T10:12:22.966Z,65.87
2023-03-03T10:13:37.879Z,64.39
2023-03-03T10:15:17.469Z,64.31
2023-03-03T10:16:40.215Z,65.17
2023-03-03T10:17:51.226Z,65.17
2023-03-03T10:19:14.902Z,64.52
2023-03-03T10:20:50.707Z,64.09
2023-03-03T10:23:17.127Z,63.68
2023-03-03T10:24:31.224Z,63.90
2023-03-03T10:25:54.938Z,62.50
2023-03-03T10:27:13.100Z,62.50
2023-03-03T10:28:24.088Z,61.57
2023-03-03T10:29:38.982Z,60.90
2023-03-03T10:32:20.849Z,61.89
2023-03-03T10:33:29.654Z,61.27
2023-03-03T10:34:55.197Z,60.87
2023-03-03T10:36:30.784Z,60.78
2023-03-03T10:37:53.370Z,59.70
2023-03-03T10:39:22.151Z,59.15
2023-03-03T10:40:36.521Z,59.14
2023-03-03T10:41:45.889Z,59.87
2023-03-03T10:42:57.327Z,60.24
2023-03-03T10:44:01.099Z,60.12
2023-03-03T10:47:02.352Z,60.54
2023-03-03T10:48:26.687Z,60.56
2023-03-03T10:49:44.762Z,60.78
2023-03-03T10:51:10.672Z,59.80
2023-03-03T10:52:31.259Z,59.77
2023-03-03T10:53:43.119Z,60.48
2023-03-03T10:55:13.209Z,61.13
2023-03-03T10:56:19.078Z,62.48
2023-03-03T10:57:42.929Z,62.48
2023-03-03T10:58:55.012Z,63.02
2023-03-03T11:00:25.174Z,62.82
2023-03-03T11:01:44.613Z,62.72
2023-03-03T11:03:02.177Z,63.39
2023-03-03T11:04:27.443Z,62.61
2023-03-03T11:05:36.740Z,63.13
2023-03-03T11:06:48.219Z,62.48
2023-03-03T11:08:18.421Z,62.69
2023-03-03T11:09:45.092Z,62.79
2023-03-03T11:10:53.779Z,61.99
2023-03-03T11:12:17.597Z,62.21
2023-03-03T11:13:32.606Z,62.44
2023-03-03T11:14:41.296Z,62.09
2023-03-03T11:15:53.200Z,61.91
2023-03-03T11:17:13.604Z,62.80
2023-03-03T11:18:31.372Z,62.98
2023-03-03T11:20:04.138Z,62.40
2023-03-03T11:21:19.471Z,62.40
2023-03-03T11:22:52.338Z,62.05
2023-03-03T11:24:13.295Z,63.00
2023-03-03T11:25:28.272Z,62.55
2023-03-03T11:26:34.279Z,61.89
2023-03-03T11:27:40.960Z,61.67
2023-03-03T11:28:53.443Z,61.54
2023-03-03T11:30:08.167Z,61.21
2023-03-03T11:31:19.537Z,61.04
2023-03-03T11:32:41.215Z,61.48
2023-03-03T11:33:59.439Z,61.52
2023-03-03T11:35:05.291Z,61.64
2023-03-03T11:36:14.310Z,61.35
2023-03-03T11:37:35.266Z,61.46
2023-03-03T11:38:56.410Z,61.16
2023-03-03T11:40:02.181Z,60.42
2023-03-03T11:41:24.869Z,59.06
2023-03-03T11:42:36.674Z,59.02
2023-03-03T11:44:03.807Z,59.41
2023-03-03T11:45:21.815Z,59.29
2023-03-03T11:46:27.698Z,58.93
2023-03-03T11:47:36.211Z,59.02
2023-03-03T11:48:57.006Z,59.06
2023-03-03T11:50:11.575Z,58.72
2023-03-03T11:51:41.935Z,58.60
2023-03-03T11:52:54.929Z,58.79
2023-03-03T11:54:00.658Z,58.84
2023-03-03T11:55:18.789Z,58.83
2023-03-03T11:56:42.189Z,58.80
2023-03-03T11:59:21.608Z,58.44
2023-03-03T12:00:30.390Z,58.36
2023-03-03T12:01:50.916Z,58.51
2023-03-03T12:03:08.908Z,58.51
2023-03-03T12:04:17.372Z,58.78
2023-03-03T12:05:35.436Z,58.95
2023-03-03T12:07:19.298Z,59.32
2023-03-03T12:08:47.002Z,58.75
2023-03-03T12:10:26.545Z,59.43
2023-03-03T12:11:53.964Z,59.42
2023-03-03T12:13:04.732Z,59.48
2023-03-03T12:14:27.448Z,59.10
2023-03-03T12:15:36.607Z,59.04
2023-03-03T12:16:51.972Z,59.06
2023-03-03T12:18:12.918Z,58.79
2023-03-03T12:19:18.706Z,58.96
2023-03-03T12:20:53.569Z,58.93
2023-03-03T12:22:18.858Z,59.03
2023-03-03T12:23:43.019Z,59.01
2023-03-03T12:25:05.765Z,59.10
2023-03-03T12:26:33.598Z,59.60
2023-03-03T12:27:51.664Z,59.20
2023-03-03T12:29:07.056Z,59.74
2023-03-03T12:30:19.917Z,59.95
2023-03-03T12:33:13.185Z,59.81
2023-03-03T12:34:25.139Z,59.71
2023-03-03T12:35:36.997Z,59.67
2023-03-03T12:36:58.542Z,59.76
2023-03-03T12:38:07.312Z,59.96
2023-03-03T12:41:14.272Z,60.15
2023-03-03T12:42:50.818Z,60.60
2023-03-03T12:43:59.946Z,60.55
2023-03-03T12:45:25.343Z,60.52
2023-03-03T12:46:55.561Z,60.86
2023-03-03T12:48:01.995Z,60.52
2023-03-03T12:49:04.747Z,60.19
2023-03-03T12:50:14.342Z,60.19
2023-03-03T12:51:22.576Z,60.30
2023-03-03T12:52:48.302Z,60.59
2023-03-03T12:54:00.459Z,60.83
2023-03-03T12:55:15.429Z,60.62
2023-03-03T12:57:46.945Z,61.30
2023-03-03T12:58:58.333Z,61.43
2023-03-03T13:00:02.238Z,61.53
2023-03-03T13:01:11.235Z,61.53
2023-03-03T13:02:35.339Z,62.04
2023-03-03T13:03:55.313Z,61.86
2023-03-03T13:04:55.470Z,61.98
2023-03-03T13:06:16.125Z,61.89
2023-03-03T13:07:25.271Z,62.26
2023-03-03T13:08:33.769Z,62.04
2023-03-03T13:09:47.672Z,61.72
2023-03-03T13:10:56.696Z,61.64
2023-03-03T13:12:22.289Z,61.74
2023-03-03T13:13:33.979Z,61.68
2023-03-03T13:14:39.775Z,61.93
2023-03-03T13:16:06.554Z,61.95
2023-03-03T13:17:18.667Z,62.04
2023-03-03T13:18:24.435Z,62.33
2023-03-03T13:19:39.496Z,62.51
2023-03-03T13:21:03.814Z,63.06
2023-03-03T13:22:09.516Z,62.97
2023-03-03T13:23:15.190Z,63.17
2023-03-03T13:24:27.107Z,62.87
2023-03-03T13:25:52.502Z,62.74
2023-03-03T13:27:07.250Z,62.84
2023-03-03T13:28:34.660Z,63.01
2023-03-03T13:31:04.444Z,62.66
2023-03-03T13:32:16.053Z,62.40
2023-03-03T13:33:31.066Z,62.18
2023-03-03T13:35:00.967Z,62.00
2023-03-03T13:36:12.745Z,61.74
2023-03-03T13:37:27.715Z,61.64
2023-03-03T13:38:33.223Z,61.65
2023-03-03T13:39:41.682Z,61.21
2023-03-03T13:40:47.747Z,60.74
2023-03-03T13:42:13.381Z,60.74
2023-03-03T13:43:25.294Z,60.84
2023-03-03T13:44:45.534Z,60.84
2023-03-03T13:46:09.587Z,61.23
2023-03-03T13:47:30.416Z,60.93
2023-03-03T13:48:45.602Z,60.71
2023-03-03T13:50:15.608Z,60.76
2023-03-03T13:51:39.394Z,60.57
2023-03-03T13:52:51.152Z,60.84
2023-03-03T13:54:03.109Z,61.02
2023-03-03T13:55:11.351Z,61.31
2023-03-03T13:56:37.040Z,60.98
2023-03-03T13:58:00.149Z,60.74
2023-03-03T13:59:20.700Z,60.20
2023-03-03T14:00:37.566Z,60.34
2023-03-03T14:01:43.363Z,60.58
2023-03-03T14:03:06.957Z,61.01
2023-03-03T14:04:28.070Z,61.09
2023-03-03T14:05:40.129Z,61.01
2023-03-03T14:06:45.948Z,61.03
2023-03-03T14:08:00.897Z,60.79
2023-03-03T14:09:12.260Z,60.57
2023-03-03T14:10:21.127Z,61.48
2023-03-03T14:11:47.855Z,60.61
2023-03-03T14:13:14.978Z,60.23
2023-03-03T14:14:38.865Z,60.66
2023-03-03T14:15:57.040Z,60.59
2023-03-03T14:17:18.110Z,60.59
2023-03-03T14:18:29.474Z,60.83
2023-03-03T14:19:38.125Z,60.93
2023-03-03T14:20:52.203Z,60.75
2023-03-03T14:22:15.977Z,60.68
2023-03-03T14:23:21.861Z,61.33
2023-03-03T14:24:24.043Z,61.33
2023-03-03T14:25:27.035Z,61.35
2023-03-03T14:26:29.633Z,61.57
2023-03-03T14:27:41.208Z,61.66
2023-03-03T14:28:47.932Z,61.45
2023-03-03T14:29:50.198Z,61.80
2023-03-03T14:30:57.799Z,62.05
2023-03-03T14:32:02.771Z,61.89
2023-03-03T14:33:11.741Z,61.88
2023-03-03T14:34:38.357Z,61.91
2023-03-03T14:35:43.537Z,61.80
2023-03-03T14:36:45.725Z,62.55
2023-03-03T14:37:50.297Z,62.53
2023-03-03T14:38:53.783Z,62.41
2023-03-03T14:40:31.546Z,62.28
2023-03-03T14:41:40.633Z,62.19
2023-03-03T14:42:52.527Z,62.75
2023-03-03T14:44:17.791Z,63.43
2023-03-03T14:45:34.742Z,63.94
2023-03-03T14:46:40.355Z,64.06
2023-03-03T14:47:45.900Z,64.62
2023-03-03T14:48:53.222Z,64.85
2023-03-03T14:49:57.783Z,65.28
2023-03-03T14:51:20.341Z,65.55
2023-03-03T14:52:25.726Z,65.57